Orcutt, California
Current Conditions -  °F | °C
As of 7:51 AM on Saturday 25 Oct 2014 (Local Time) from KSMX Reporting Station
Scattered Clouds Scattered Clouds  
Wind Chill: 54°   Ceiling: Unl
Heat Index: 54°   Visibility: 9mi
Dew Point: 50°   Wind: 3mph
Humidity: 86%   Direction: 130°SE
Pressure: 30.05"   Gusts: NA
Location:  34.8654°N, 120.435°W
Report Text: KSMX 251451Z 13003KT 9SM SCT250 12/10 A3005 RMK AO2 SLP179 T01220100 53009
Loading
Personal Weather Stations






























Interactive Weather Map
Tropical Storm Tracking
New forecast layout! Learn more

10-Day Weather Forecast

Advertisements
Track Severe Weather on mobile